sensor_id;sensor_type;location;lat;lon;timestamp;pressure;altitude;pressure_sealevel;temperature;humidity
44079;BME280;29744;49.078;12.878;2022-07-29T00:00:43;96391.69;;;21.30;39.61
44079;BME280;29744;49.078;12.878;2022-07-29T00:05:46;96388.94;;;21.30;39.45
44079;BME280;29744;49.078;12.878;2022-07-29T00:10:47;96378.03;;;21.30;39.44
44079;BME280;29744;49.078;12.878;2022-07-29T00:15:47;96376.09;;;21.31;39.23
44079;BME280;29744;49.078;12.878;2022-07-29T00:20:47;96375.31;;;21.30;39.75
44079;BME280;29744;49.078;12.878;2022-07-29T00:25:48;96368.72;;;21.31;39.60
44079;BME280;29744;49.078;12.878;2022-07-29T00:30:48;96357.00;;;21.31;39.53
44079;BME280;29744;49.078;12.878;2022-07-29T00:35:48;96365.19;;;21.31;39.54
44079;BME280;29744;49.078;12.878;2022-07-29T00:40:49;96354.28;;;21.31;39.84
44079;BME280;29744;49.078;12.878;2022-07-29T00:45:49;96356.59;;;21.29;39.29
44079;BME280;29744;49.078;12.878;2022-07-29T00:50:49;96342.16;;;21.28;39.65
44079;BME280;29744;49.078;12.878;2022-07-29T00:55:50;96339.44;;;21.28;39.67
44079;BME280;29744;49.078;12.878;2022-07-29T01:00:51;96333.19;;;21.28;39.36
44079;BME280;29744;49.078;12.878;2022-07-29T01:05:52;96332.03;;;21.29;39.81
44079;BME280;29744;49.078;12.878;2022-07-29T01:10:53;96338.25;;;21.26;39.79
44079;BME280;29744;49.078;12.878;2022-07-29T01:15:59;96327.34;;;21.26;39.81
44079;BME280;29744;49.078;12.878;2022-07-29T01:26:42;96345.25;;;21.27;39.47
44079;BME280;29744;49.078;12.878;2022-07-29T01:31:54;96340.19;;;21.25;39.66
44079;BME280;29744;49.078;12.878;2022-07-29T01:42:23;96335.16;;;21.27;39.58
44079;BME280;29744;49.078;12.878;2022-07-29T01:47:33;96336.31;;;21.26;39.74
44079;BME280;29744;49.078;12.878;2022-07-29T01:52:47;96339.03;;;21.26;39.69
44079;BME280;29744;49.078;12.878;2022-07-29T01:57:49;96338.66;;;21.28;39.49
44079;BME280;29744;49.078;12.878;2022-07-29T02:02:50;96337.09;;;21.27;39.66
44079;BME280;29744;49.078;12.878;2022-07-29T02:07:53;96333.19;;;21.28;39.56
44079;BME280;29744;49.078;12.878;2022-07-29T02:12:56;96325.81;;;21.28;39.58
44079;BME280;29744;49.078;12.878;2022-07-29T02:18:02;96316.84;;;21.28;39.84
44079;BME280;29744;49.078;12.878;2022-07-29T02:23:04;96305.16;;;21.27;39.60
44079;BME280;29744;49.078;12.878;2022-07-29T02:28:06;96301.63;;;21.27;39.24
44079;BME280;29744;49.078;12.878;2022-07-29T02:33:08;96295.38;;;21.26;39.83
44079;BME280;29744;49.078;12.878;2022-07-29T02:38:13;96295.38;;;21.26;39.58
44079;BME280;29744;49.078;12.878;2022-07-29T02:43:34;96287.56;;;21.25;39.56
44079;BME280;29744;49.078;12.878;2022-07-29T02:48:38;96294.59;;;21.26;39.63
44079;BME280;29744;49.078;12.878;2022-07-29T02:53:40;96291.88;;;21.26;39.62
44079;BME280;29744;49.078;12.878;2022-07-29T02:58:45;96286.78;;;21.24;40.05
44079;BME280;29744;49.078;12.878;2022-07-29T03:03:48;96291.09;;;21.25;39.44
44079;BME280;29744;49.078;12.878;2022-07-29T03:08:51;96276.66;;;21.25;39.50
44079;BME280;29744;49.078;12.878;2022-07-29T03:13:51;96286.00;;;21.24;39.41
44079;BME280;29744;49.078;12.878;2022-07-29T03:18:52;96286.78;;;21.24;39.51
44079;BME280;29744;49.078;12.878;2022-07-29T03:23:53;96286.00;;;21.24;39.39
44079;BME280;29744;49.078;12.878;2022-07-29T03:28:54;96277.03;;;21.23;39.60
44079;BME280;29744;49.078;12.878;2022-07-29T03:33:54;96278.63;;;21.24;39.60
44079;BME280;29744;49.078;12.878;2022-07-29T03:38:55;96282.13;;;21.25;39.30
44079;BME280;29744;49.078;12.878;2022-07-29T03:43:57;96273.94;;;21.25;39.41
44079;BME280;29744;49.078;12.878;2022-07-29T03:49:03;96276.66;;;21.25;39.64
44079;BME280;29744;49.078;12.878;2022-07-29T03:54:04;96284.06;;;21.24;39.64
44079;BME280;29744;49.078;12.878;2022-07-29T03:59:06;96292.25;;;21.24;39.86
44079;BME280;29744;49.078;12.878;2022-07-29T04:04:07;96286.78;;;21.24;39.64
44079;BME280;29744;49.078;12.878;2022-07-29T04:09:07;96297.69;;;21.24;39.74
44079;BME280;29744;49.078;12.878;2022-07-29T04:14:08;96294.97;;;21.24;39.72
44079;BME280;29744;49.078;12.878;2022-07-29T04:19:08;96279.41;;;21.25;39.70
44079;BME280;29744;49.078;12.878;2022-07-29T04:24:08;96280.19;;;21.25;39.53
44079;BME280;29744;49.078;12.878;2022-07-29T04:29:08;96291.88;;;21.26;39.60
44079;BME280;29744;49.078;12.878;2022-07-29T04:34:09;96293.44;;;21.27;39.35
44079;BME280;29744;49.078;12.878;2022-07-29T04:39:10;96294.22;;;21.27;40.05
44079;BME280;29744;49.078;12.878;2022-07-29T04:44:10;96306.31;;;21.26;39.94
44079;BME280;29744;49.078;12.878;2022-07-29T04:49:11;96311.38;;;21.28;39.72
44079;BME280;29744;49.078;12.878;2022-07-29T04:54:11;96309.81;;;21.27;39.30
44079;BME280;29744;49.078;12.878;2022-07-29T04:59:11;96308.66;;;21.28;40.04
44079;BME280;29744;49.078;12.878;2022-07-29T05:04:12;96316.84;;;21.28;39.58
44079;BME280;29744;49.078;12.878;2022-07-29T05:09:12;96316.84;;;21.28;39.78
44079;BME280;29744;49.078;12.878;2022-07-29T05:14:12;96332.03;;;21.29;39.58
44079;BME280;29744;49.078;12.878;2022-07-29T05:19:13;96329.31;;;21.29;39.93
44079;BME280;29744;49.078;12.878;2022-07-29T05:24:13;96340.22;;;21.29;39.54
44079;BME280;29744;49.078;12.878;2022-07-29T05:29:13;96335.94;;;21.28;39.59
44079;BME280;29744;49.078;12.878;2022-07-29T05:34:14;96343.75;;;21.29;39.38
44079;BME280;29744;49.078;12.878;2022-07-29T05:39:14;96353.09;;;21.28;39.72
44079;BME280;29744;49.078;12.878;2022-07-29T05:44:14;96349.56;;;21.28;39.65
44079;BME280;29744;49.078;12.878;2022-07-29T05:49:15;96359.31;;;21.29;39.46
44079;BME280;29744;49.078;12.878;2022-07-29T05:54:15;96364.78;;;21.29;39.74
44079;BME280;29744;49.078;12.878;2022-07-29T05:59:16;96362.06;;;21.29;39.73
44079;BME280;29744;49.078;12.878;2022-07-29T06:04:16;96364.78;;;21.29;39.91
44079;BME280;29744;49.078;12.878;2022-07-29T06:09:16;96350.78;;;21.30;39.60
44079;BME280;29744;49.078;12.878;2022-07-29T06:14:16;96349.97;;;21.30;39.73
44079;BME280;29744;49.078;12.878;2022-07-29T06:19:17;96356.22;;;21.30;39.90
44079;BME280;29744;49.078;12.878;2022-07-29T06:24:17;96352.72;;;21.30;39.97
44079;BME280;29744;49.078;12.878;2022-07-29T06:29:18;96360.91;;;21.30;39.70
44079;BME280;29744;49.078;12.878;2022-07-29T06:34:18;96359.31;;;21.29;39.74
44079;BME280;29744;49.078;12.878;2022-07-29T06:39:19;96368.72;;;21.31;39.67
44079;BME280;29744;49.078;12.878;2022-07-29T06:44:19;96364.78;;;21.29;40.18
44079;BME280;29744;49.078;12.878;2022-07-29T06:49:20;96362.84;;;21.29;39.82
44079;BME280;29744;49.078;12.878;2022-07-29T06:54:20;96370.66;;;21.31;39.92
44079;BME280;29744;49.078;12.878;2022-07-29T06:59:21;96371.00;;;21.29;39.71
44079;BME280;29744;49.078;12.878;2022-07-29T07:04:21;96366.34;;;21.30;39.63
44079;BME280;29744;49.078;12.878;2022-07-29T07:09:22;96365.19;;;21.31;40.06
44079;BME280;29744;49.078;12.878;2022-07-29T07:14:22;96361.31;;;21.32;39.87
44079;BME280;29744;49.078;12.878;2022-07-29T07:19:22;96354.28;;;21.31;39.91
44079;BME280;29744;49.078;12.878;2022-07-29T07:24:23;96356.22;;;21.30;39.83
44079;BME280;29744;49.078;12.878;2022-07-29T07:29:23;96360.53;;;21.31;39.73
44079;BME280;29744;49.078;12.878;2022-07-29T07:34:23;96365.59;;;21.33;39.53
44079;BME280;29744;49.078;12.878;2022-07-29T07:39:23;96358.59;;;21.32;39.50
44079;BME280;29744;49.078;12.878;2022-07-29T07:44:26;96363.66;;;21.33;40.03
44079;BME280;29744;49.078;12.878;2022-07-29T07:49:26;96368.34;;;21.33;39.75
44079;BME280;29744;49.078;12.878;2022-07-29T07:54:26;96381.97;;;21.33;40.12
44079;BME280;29744;49.078;12.878;2022-07-29T07:59:26;96380.03;;;21.33;39.72
44079;BME280;29744;49.078;12.878;2022-07-29T08:04:27;96381.97;;;21.33;39.69
44079;BME280;29744;49.078;12.878;2022-07-29T08:09:28;96387.44;;;21.33;39.65
44079;BME280;29744;49.078;12.878;2022-07-29T08:14:30;96399.13;;;21.33;39.72
44079;BME280;29744;49.078;12.878;2022-07-29T08:19:30;96403.44;;;21.34;39.82
44079;BME280;29744;49.078;12.878;2022-07-29T08:24:30;96403.44;;;21.34;39.70
44079;BME280;29744;49.078;12.878;2022-07-29T08:29:43;96410.81;;;21.34;39.80
44079;BME280;29744;49.078;12.878;2022-07-29T08:34:43;96410.81;;;21.34;39.72
44079;BME280;29744;49.078;12.878;2022-07-29T08:39:46;96410.81;;;21.34;39.57
44079;BME280;29744;49.078;12.878;2022-07-29T08:44:47;96417.06;;;21.34;39.58
44079;BME280;29744;49.078;12.878;2022-07-29T08:49:47;96415.91;;;21.35;39.45
44079;BME280;29744;49.078;12.878;2022-07-29T08:54:48;96413.97;;;21.36;39.63
44079;BME280;29744;49.078;12.878;2022-07-29T08:59:50;96411.25;;;21.36;39.19
44079;BME280;29744;49.078;12.878;2022-07-29T09:04:52;96412.03;;;21.36;39.49
44079;BME280;29744;49.078;12.878;2022-07-29T09:09:52;96406.22;;;21.38;39.67
44079;BME280;29744;49.078;12.878;2022-07-29T09:14:53;96395.28;;;21.38;39.55
44079;BME280;29744;49.078;12.878;2022-07-29T09:20:08;96395.28;;;21.38;39.38
44079;BME280;29744;49.078;12.878;2022-07-29T09:25:11;96399.22;;;21.40;39.48
44079;BME280;29744;49.078;12.878;2022-07-29T09:30:14;96393.41;;;21.42;39.15
44079;BME280;29744;49.078;12.878;2022-07-29T09:35:15;96394.19;;;21.42;39.34
44079;BME280;29744;49.078;12.878;2022-07-29T09:40:21;96377.44;;;21.44;39.16
44079;BME280;29744;49.078;12.878;2022-07-29T09:45:33;96379.38;;;21.43;38.84
44079;BME280;29744;49.078;12.878;2022-07-29T09:50:38;96372.78;;;21.44;39.23
44079;BME280;29744;49.078;12.878;2022-07-29T09:55:49;96369.25;;;21.44;39.20
44079;BME280;29744;49.078;12.878;2022-07-29T10:00:55;96362.66;;;21.45;39.14
44079;BME280;29744;49.078;12.878;2022-07-29T10:06:06;96364.59;;;21.44;39.59
44079;BME280;29744;49.078;12.878;2022-07-29T10:11:11;96358.75;;;21.46;39.43
44079;BME280;29744;49.078;12.878;2022-07-29T10:16:13;96359.56;;;21.46;39.13
44079;BME280;29744;49.078;12.878;2022-07-29T10:21:13;96356.81;;;21.46;39.33
44079;BME280;29744;49.078;12.878;2022-07-29T10:26:15;96348.25;;;21.48;39.26
44079;BME280;29744;49.078;12.878;2022-07-29T10:31:25;96338.88;;;21.45;39.19
44079;BME280;29744;49.078;12.878;2022-07-29T10:36:52;96335.75;;;21.43;39.26
44079;BME280;29744;49.078;12.878;2022-07-29T10:46:58;96334.22;;;21.46;39.38
44079;BME280;29744;49.078;12.878;2022-07-29T10:52:06;96330.31;;;21.47;39.39
44079;BME280;29744;49.078;12.878;2022-07-29T11:07:39;96326.03;;;21.46;39.34
44079;BME280;29744;49.078;12.878;2022-07-29T11:22:52;96327.22;;;21.48;39.42
44079;BME280;29744;49.078;12.878;2022-07-29T11:27:54;96316.31;;;21.48;39.07
44079;BME280;29744;49.078;12.878;2022-07-29T11:33:26;96312.00;;;21.47;39.31
44079;BME280;29744;49.078;12.878;2022-07-29T11:38:27;96310.47;;;21.50;39.21
44079;BME280;29744;49.078;12.878;2022-07-29T11:43:47;96294.84;;;21.47;39.26
44079;BME280;29744;49.078;12.878;2022-07-29T11:48:48;96297.22;;;21.48;39.33
44079;BME280;29744;49.078;12.878;2022-07-29T11:53:48;96296.84;;;21.50;39.17
44079;BME280;29744;49.078;12.878;2022-07-29T11:58:50;96285.16;;;21.49;39.45
44079;BME280;29744;49.078;12.878;2022-07-29T12:04:02;96287.88;;;21.49;39.04
44079;BME280;29744;49.078;12.878;2022-07-29T12:09:09;96276.59;;;21.51;39.51
44079;BME280;29744;49.078;12.878;2022-07-29T12:14:30;96286.72;;;21.50;39.45
44079;BME280;29744;49.078;12.878;2022-07-29T12:19:42;96278.16;;;21.52;39.46
44079;BME280;29744;49.078;12.878;2022-07-29T12:24:44;96272.31;;;21.54;39.52
44079;BME280;29744;49.078;12.878;2022-07-29T12:29:54;96277.41;;;21.55;39.18
44079;BME280;29744;49.078;12.878;2022-07-29T12:34:55;96274.69;;;21.55;39.54
44079;BME280;29744;49.078;12.878;2022-07-29T12:39:55;96274.69;;;21.55;39.45
44079;BME280;29744;49.078;12.878;2022-07-29T12:44:55;96265.34;;;21.56;39.83
44079;BME280;29744;49.078;12.878;2022-07-29T12:50:13;96264.56;;;21.56;39.95
44079;BME280;29744;49.078;12.878;2022-07-29T13:00:40;96257.94;;;21.57;39.66
44079;BME280;29744;49.078;12.878;2022-07-29T13:05:44;96248.22;;;21.59;39.70
44079;BME280;29744;49.078;12.878;2022-07-29T13:10:45;96240.03;;;21.59;39.63
44079;BME280;29744;49.078;12.878;2022-07-29T13:15:46;96244.34;;;21.60;39.62
44079;BME280;29744;49.078;12.878;2022-07-29T13:20:49;96240.03;;;21.59;39.66
44079;BME280;29744;49.078;12.878;2022-07-29T13:25:49;96242.75;;;21.59;39.66
44079;BME280;29744;49.078;12.878;2022-07-29T13:30:49;96242.75;;;21.59;39.60
44079;BME280;29744;49.078;12.878;2022-07-29T13:35:50;96236.97;;;21.61;39.49
44079;BME280;29744;49.078;12.878;2022-07-29T13:40:50;96233.41;;;21.60;39.20
44079;BME280;29744;49.078;12.878;2022-07-29T13:45:51;96224.09;;;21.61;39.46
44079;BME280;29744;49.078;12.878;2022-07-29T13:50:51;96218.63;;;21.61;39.50
44079;BME280;29744;49.078;12.878;2022-07-29T13:55:52;96215.91;;;21.61;39.50
44079;BME280;29744;49.078;12.878;2022-07-29T14:00:53;96210.44;;;21.61;39.22
44079;BME280;29744;49.078;12.878;2022-07-29T14:05:54;96210.44;;;21.61;39.36
44079;BME280;29744;49.078;12.878;2022-07-29T14:10:54;96218.63;;;21.61;38.88
44079;BME280;29744;49.078;12.878;2022-07-29T14:15:54;96215.91;;;21.61;39.02
44079;BME280;29744;49.078;12.878;2022-07-29T14:20:55;96217.47;;;21.62;38.80
44079;BME280;29744;49.078;12.878;2022-07-29T14:25:55;96219.06;;;21.63;38.99
44079;BME280;29744;49.078;12.878;2022-07-29T14:30:55;96219.84;;;21.64;39.07
44079;BME280;29744;49.078;12.878;2022-07-29T14:35:56;96207.34;;;21.63;39.61
44079;BME280;29744;49.078;12.878;2022-07-29T14:40:56;96202.69;;;21.63;39.25
44079;BME280;29744;49.078;12.878;2022-07-29T14:45:56;96196.44;;;21.63;39.39
44079;BME280;29744;49.078;12.878;2022-07-29T14:50:56;96202.69;;;21.63;39.73
44079;BME280;29744;49.078;12.878;2022-07-29T14:55:58;96199.16;;;21.63;38.98
44079;BME280;29744;49.078;12.878;2022-07-29T15:00:59;96202.28;;;21.61;39.40
44079;BME280;29744;49.078;12.878;2022-07-29T15:05:59;96197.94;;;21.60;39.57
44079;BME280;29744;49.078;12.878;2022-07-29T15:10:59;96202.28;;;21.61;39.18
44079;BME280;29744;49.078;12.878;2022-07-29T15:16:00;96192.47;;;21.60;39.33
44079;BME280;29744;49.078;12.878;2022-07-29T15:21:01;96188.19;;;21.59;39.17
44079;BME280;29744;49.078;12.878;2022-07-29T15:26:03;96195.22;;;21.60;39.71
44079;BME280;29744;49.078;12.878;2022-07-29T15:31:03;96188.19;;;21.59;39.31
44079;BME280;29744;49.078;12.878;2022-07-29T15:36:04;96193.66;;;21.59;39.38
44079;BME280;29744;49.078;12.878;2022-07-29T15:41:04;96180.38;;;21.58;39.32
44079;BME280;29744;49.078;12.878;2022-07-29T15:46:05;96180.75;;;21.56;39.46
44079;BME280;29744;49.078;12.878;2022-07-29T15:51:24;96183.47;;;21.56;39.65
44079;BME280;29744;49.078;12.878;2022-07-29T15:56:24;96176.88;;;21.57;39.61
44079;BME280;29744;49.078;12.878;2022-07-29T16:01:25;96170.63;;;21.57;39.86
44079;BME280;29744;49.078;12.878;2022-07-29T16:06:25;96162.41;;;21.53;39.90
44079;BME280;29744;49.078;12.878;2022-07-29T16:11:26;96156.19;;;21.56;39.60
44079;BME280;29744;49.078;12.878;2022-07-29T16:16:26;96155.41;;;21.56;39.60
44079;BME280;29744;49.078;12.878;2022-07-29T16:21:27;96157.34;;;21.55;40.06
44079;BME280;29744;49.078;12.878;2022-07-29T16:26:27;96153.06;;;21.54;39.91
44079;BME280;29744;49.078;12.878;2022-07-29T16:31:28;96157.34;;;21.55;39.65
44079;BME280;29744;49.078;12.878;2022-07-29T16:36:28;96167.47;;;21.55;39.79
44079;BME280;29744;49.078;12.878;2022-07-29T16:41:28;96156.53;;;21.51;39.79
44079;BME280;29744;49.078;12.878;2022-07-29T16:46:29;96157.72;;;21.54;39.97
44079;BME280;29744;49.078;12.878;2022-07-29T16:51:29;96156.16;;;21.53;39.73
44079;BME280;29744;49.078;12.878;2022-07-29T16:56:29;96162.00;;;21.51;39.82
44079;BME280;29744;49.078;12.878;2022-07-29T17:01:30;96163.94;;;21.50;39.86
44079;BME280;29744;49.078;12.878;2022-07-29T17:06:34;96182.25;;;21.50;39.48
44079;BME280;29744;49.078;12.878;2022-07-29T17:11:35;96181.47;;;21.49;39.67
44079;BME280;29744;49.078;12.878;2022-07-29T17:16:35;96182.63;;;21.48;39.69
44079;BME280;29744;49.078;12.878;2022-07-29T17:21:36;96184.56;;;21.48;39.97
44079;BME280;29744;49.078;12.878;2022-07-29T17:26:36;96191.97;;;21.47;40.11
44079;BME280;29744;49.078;12.878;2022-07-29T17:31:38;96197.81;;;21.46;40.00
44079;BME280;29744;49.078;12.878;2022-07-29T17:36:39;96204.03;;;21.46;39.87
44079;BME280;29744;49.078;12.878;2022-07-29T17:41:39;96233.63;;;21.44;40.38
44079;BME280;29744;49.078;12.878;2022-07-29T17:46:40;96254.31;;;21.45;39.95
44079;BME280;29744;49.078;12.878;2022-07-29T17:51:40;96260.13;;;21.44;39.86
44079;BME280;29744;49.078;12.878;2022-07-29T17:56:40;96254.69;;;21.44;39.91
44079;BME280;29744;49.078;12.878;2022-07-29T18:01:41;96232.06;;;21.43;39.95
44079;BME280;29744;49.078;12.878;2022-07-29T18:06:41;96244.13;;;21.42;39.77
44079;BME280;29744;49.078;12.878;2022-07-29T18:11:41;96267.91;;;21.42;40.34
44079;BME280;29744;49.078;12.878;2022-07-29T18:16:42;96296.75;;;21.43;40.07
44079;BME280;29744;49.078;12.878;2022-07-29T18:21:42;96279.97;;;21.41;40.49
44079;BME280;29744;49.078;12.878;2022-07-29T18:26:42;96252.69;;;21.41;40.16
44079;BME280;29744;49.078;12.878;2022-07-29T18:31:42;96275.31;;;21.41;39.79
44079;BME280;29744;49.078;12.878;2022-07-29T18:36:44;96282.72;;;21.41;40.09
44079;BME280;29744;49.078;12.878;2022-07-29T18:41:44;96287.38;;;21.40;40.35
44079;BME280;29744;49.078;12.878;2022-07-29T18:46:45;96276.84;;;21.39;40.07
44079;BME280;29744;49.078;12.878;2022-07-29T18:51:45;96268.66;;;21.39;40.16
44079;BME280;29744;49.078;12.878;2022-07-29T18:56:46;96279.16;;;21.37;40.24
44079;BME280;29744;49.078;12.878;2022-07-29T19:01:47;96285.41;;;21.37;40.42
44079;BME280;29744;49.078;12.878;2022-07-29T19:06:47;96315.41;;;21.37;40.24
44079;BME280;29744;49.078;12.878;2022-07-29T19:11:47;96332.91;;;21.36;40.19
44079;BME280;29744;49.078;12.878;2022-07-29T19:16:48;96336.03;;;21.35;40.29
44079;BME280;29744;49.078;12.878;2022-07-29T19:21:48;96366.81;;;21.35;40.64
44079;BME280;29744;49.078;12.878;2022-07-29T19:26:48;96380.44;;;21.35;40.48
44079;BME280;29744;49.078;12.878;2022-07-29T19:31:49;96357.06;;;21.34;40.27
44079;BME280;29744;49.078;12.878;2022-07-29T19:36:49;96389.00;;;21.34;40.43
44079;BME280;29744;49.078;12.878;2022-07-29T19:41:49;96398.75;;;21.35;40.27
44079;BME280;29744;49.078;12.878;2022-07-29T19:46:50;96396.41;;;21.33;40.25
44079;BME280;29744;49.078;12.878;2022-07-29T19:51:50;96393.66;;;21.33;40.16
44079;BME280;29744;49.078;12.878;2022-07-29T19:56:50;96396.78;;;21.32;40.50
44079;BME280;29744;49.078;12.878;2022-07-29T20:01:50;96391.31;;;21.32;40.19
44079;BME280;29744;49.078;12.878;2022-07-29T20:06:51;96389.75;;;21.31;40.34
44079;BME280;29744;49.078;12.878;2022-07-29T20:11:54;96387.81;;;21.31;40.81
44079;BME280;29744;49.078;12.878;2022-07-29T20:16:55;96392.47;;;21.31;40.39
44079;BME280;29744;49.078;12.878;2022-07-29T20:21:55;96378.03;;;21.30;40.28
44079;BME280;29744;49.078;12.878;2022-07-29T20:26:55;96390.91;;;21.30;40.39
44079;BME280;29744;49.078;12.878;2022-07-29T20:31:55;96393.63;;;21.30;40.17
44079;BME280;29744;49.078;12.878;2022-07-29T20:36:56;96404.53;;;21.30;40.10
44079;BME280;29744;49.078;12.878;2022-07-29T20:41:57;96399.88;;;21.30;40.61
44079;BME280;29744;49.078;12.878;2022-07-29T20:46:57;96392.06;;;21.29;40.29
44079;BME280;29744;49.078;12.878;2022-07-29T20:51:57;96380.34;;;21.28;40.47
44079;BME280;29744;49.078;12.878;2022-07-29T20:56:57;96376.84;;;21.28;40.48
44079;BME280;29744;49.078;12.878;2022-07-29T21:01:58;96373.31;;;21.27;40.58
44079;BME280;29744;49.078;12.878;2022-07-29T21:06:58;96384.25;;;21.27;40.46
44079;BME280;29744;49.078;12.878;2022-07-29T21:11:58;96381.50;;;21.27;40.66
44079;BME280;29744;49.078;12.878;2022-07-29T21:16:59;96388.13;;;21.26;40.60
44079;BME280;29744;49.078;12.878;2022-07-29T21:22:01;96392.78;;;21.26;40.87
44079;BME280;29744;49.078;12.878;2022-07-29T21:27:01;96377.59;;;21.25;40.60
44079;BME280;29744;49.078;12.878;2022-07-29T21:32:20;96384.19;;;21.24;40.45
44079;BME280;29744;49.078;12.878;2022-07-29T21:37:20;96373.63;;;21.22;40.49
44079;BME280;29744;49.078;12.878;2022-07-29T21:42:21;96385.34;;;21.23;40.65
44079;BME280;29744;49.078;12.878;2022-07-29T21:47:21;96383.75;;;21.22;40.68
44079;BME280;29744;49.078;12.878;2022-07-29T21:52:21;96394.66;;;21.22;40.70
44079;BME280;29744;49.078;12.878;2022-07-29T21:57:22;96396.59;;;21.21;40.63
44079;BME280;29744;49.078;12.878;2022-07-29T22:02:22;96407.50;;;21.21;40.89
44079;BME280;29744;49.078;12.878;2022-07-29T22:07:22;96413.31;;;21.19;40.76
44079;BME280;29744;49.078;12.878;2022-07-29T22:12:23;96418.78;;;21.19;40.97
44079;BME280;29744;49.078;12.878;2022-07-29T22:17:23;96427.75;;;21.20;41.10
44079;BME280;29744;49.078;12.878;2022-07-29T22:22:23;96429.25;;;21.17;40.90
44079;BME280;29744;49.078;12.878;2022-07-29T22:27:24;96435.88;;;21.16;40.60
44079;BME280;29744;49.078;12.878;2022-07-29T22:32:24;96426.91;;;21.16;40.92
44079;BME280;29744;49.078;12.878;2022-07-29T22:37:24;96424.53;;;21.14;40.71
44079;BME280;29744;49.078;12.878;2022-07-29T22:42:25;96422.59;;;21.15;40.89
44079;BME280;29744;49.078;12.878;2022-07-29T22:47:25;96414.78;;;21.13;40.90
44079;BME280;29744;49.078;12.878;2022-07-29T22:52:26;96419.47;;;21.13;40.69
44079;BME280;29744;49.078;12.878;2022-07-29T22:57:26;96415.56;;;21.14;40.74
44079;BME280;29744;49.078;12.878;2022-07-29T23:02:27;96415.94;;;21.12;41.10
44079;BME280;29744;49.078;12.878;2022-07-29T23:07:27;96408.19;;;21.14;40.71
44079;BME280;29744;49.078;12.878;2022-07-29T23:12:28;96408.97;;;21.15;40.97
44079;BME280;29744;49.078;12.878;2022-07-29T23:17:28;96407.03;;;21.15;40.78
44079;BME280;29744;49.078;12.878;2022-07-29T23:22:28;96399.63;;;21.16;40.82
44079;BME280;29744;49.078;12.878;2022-07-29T23:27:28;96405.88;;;21.16;40.73
44079;BME280;29744;49.078;12.878;2022-07-29T23:32:29;96403.50;;;21.15;41.02
44079;BME280;29744;49.078;12.878;2022-07-29T23:37:29;96398.06;;;21.15;40.58
44079;BME280;29744;49.078;12.878;2022-07-29T23:42:30;96395.34;;;21.15;41.22
44079;BME280;29744;49.078;12.878;2022-07-29T23:47:30;96402.72;;;21.14;41.05
44079;BME280;29744;49.078;12.878;2022-07-29T23:52:31;96394.56;;;21.14;40.53
44079;BME280;29744;49.078;12.878;2022-07-29T23:57:31;96390.25;;;21.13;40.73
